createdAt,value
2022-12-11T00:01:22.304Z,6.50
2022-12-11T00:03:55.247Z,6.17
2022-12-11T00:06:28.200Z,6.63
2022-12-11T00:09:01.137Z,6.47
2022-12-11T00:11:34.086Z,6.40
2022-12-11T00:14:07.043Z,7.67
2022-12-11T00:16:40.280Z,6.63
2022-12-11T00:19:13.296Z,7.57
2022-12-11T00:21:46.305Z,6.60
2022-12-11T00:24:19.228Z,7.50
2022-12-11T00:26:52.184Z,6.87
2022-12-11T00:29:25.105Z,6.10
2022-12-11T00:31:58.089Z,5.83
2022-12-11T00:34:31.093Z,5.23
2022-12-11T00:37:04.315Z,5.80
2022-12-11T00:39:37.836Z,5.10
2022-12-11T00:42:10.915Z,5.73
2022-12-11T00:44:43.925Z,5.33
2022-12-11T00:47:16.811Z,4.93
2022-12-11T00:49:50.273Z,5.47
2022-12-11T00:52:23.328Z,5.13
2022-12-11T00:54:56.226Z,5.10
2022-12-11T00:57:29.107Z,4.57
2022-12-11T01:00:02.031Z,5.57
2022-12-11T01:02:35.287Z,4.13
2022-12-11T01:05:10.178Z,5.47
2022-12-11T01:07:43.384Z,5.23
2022-12-11T01:10:25.941Z,5.23
2022-12-11T01:13:03.399Z,4.80
2022-12-11T01:15:41.818Z,4.43
2022-12-11T01:18:15.903Z,4.83
2022-12-11T01:20:48.893Z,4.23
2022-12-11T01:23:21.781Z,3.80
2022-12-11T01:25:54.717Z,6.32
2022-12-11T01:28:27.582Z,4.63
2022-12-11T01:31:00.570Z,4.20
2022-12-11T01:33:33.602Z,5.10
2022-12-11T01:36:10.654Z,4.77
2022-12-11T01:38:43.576Z,5.03
2022-12-11T01:41:17.506Z,5.63
2022-12-11T01:44:28.729Z,4.53
2022-12-11T01:47:01.720Z,6.13
2022-12-11T01:49:34.610Z,4.53
2022-12-11T01:52:13.300Z,4.50
2022-12-11T01:54:46.585Z,4.40
2022-12-11T01:57:19.527Z,4.10
2022-12-11T01:59:52.660Z,4.13
2022-12-11T02:02:28.415Z,4.57
2022-12-11T02:05:05.124Z,4.87
2022-12-11T02:07:50.550Z,3.90
2022-12-11T02:10:28.969Z,3.80
2022-12-11T02:13:04.062Z,4.30
2022-12-11T02:15:40.474Z,4.57
2022-12-11T02:18:28.608Z,3.93
2022-12-11T02:21:11.519Z,4.00
2022-12-11T02:24:02.423Z,3.97
2022-12-11T02:26:41.405Z,3.73
2022-12-11T02:29:18.754Z,4.60
2022-12-11T02:31:55.442Z,4.73
2022-12-11T02:34:40.678Z,4.97
2022-12-11T02:37:17.123Z,4.47
2022-12-11T02:39:51.556Z,4.40
2022-12-11T02:42:27.541Z,4.07
2022-12-11T02:45:01.496Z,4.50
2022-12-11T02:47:34.478Z,3.87
2022-12-11T02:50:10.102Z,4.67
2022-12-11T02:52:43.479Z,4.70
2022-12-11T02:55:17.372Z,3.33
2022-12-11T02:57:57.185Z,3.80
2022-12-11T03:00:30.415Z,3.57
2022-12-11T03:03:03.521Z,3.87
2022-12-11T03:05:36.503Z,4.03
2022-12-11T03:08:09.471Z,4.30
2022-12-11T03:10:42.439Z,4.70
2022-12-11T03:13:16.732Z,4.03
2022-12-11T03:16:10.300Z,4.00
2022-12-11T03:18:43.147Z,4.33
2022-12-11T03:21:20.299Z,3.77
2022-12-11T03:24:02.851Z,4.43
2022-12-11T03:26:42.832Z,4.27
2022-12-11T03:29:21.721Z,4.47
2022-12-11T03:32:00.781Z,4.13
2022-12-11T03:34:38.717Z,4.23
2022-12-11T03:37:13.321Z,3.83
2022-12-11T03:39:52.484Z,4.00
2022-12-11T03:42:27.086Z,3.50
2022-12-11T03:45:00.627Z,3.63
2022-12-11T03:47:34.139Z,4.30
2022-12-11T03:50:09.517Z,3.67
2022-12-11T03:52:46.029Z,4.40
2022-12-11T03:55:19.842Z,5.17
2022-12-11T03:57:52.793Z,4.37
2022-12-11T04:00:25.726Z,7.27
2022-12-11T04:03:14.425Z,4.50
2022-12-11T04:05:51.840Z,3.57
2022-12-11T04:08:24.972Z,4.87
2022-12-11T04:11:16.600Z,5.07
2022-12-11T04:14:09.496Z,4.47
2022-12-11T04:16:42.383Z,3.90
2022-12-11T04:19:33.909Z,4.90
2022-12-11T04:22:25.540Z,6.32
2022-12-11T04:24:58.799Z,4.43
2022-12-11T04:27:49.952Z,4.03
2022-12-11T04:30:24.677Z,3.80
2022-12-11T04:32:59.858Z,3.90
2022-12-11T04:35:33.119Z,4.37
2022-12-11T04:38:06.018Z,3.80
2022-12-11T04:40:38.944Z,4.00
2022-12-11T04:43:11.812Z,3.53
2022-12-11T04:45:44.729Z,3.50
2022-12-11T04:48:17.625Z,4.13
2022-12-11T04:50:50.560Z,3.63
2022-12-11T04:53:23.436Z,3.60
2022-12-11T04:55:56.415Z,3.33
2022-12-11T04:58:29.329Z,3.67
2022-12-11T05:01:07.697Z,3.87
2022-12-11T05:03:40.666Z,3.33
2022-12-11T05:06:14.063Z,3.40
2022-12-11T05:08:47.023Z,3.87
2022-12-11T05:11:20.247Z,4.17
2022-12-11T05:13:53.172Z,3.63
2022-12-11T05:16:26.088Z,3.73
2022-12-11T05:18:58.983Z,3.73
2022-12-11T05:21:35.213Z,3.80
2022-12-11T05:24:08.435Z,3.57
2022-12-11T05:26:41.588Z,3.80
2022-12-11T05:29:14.492Z,3.23
2022-12-11T05:31:47.459Z,3.60
2022-12-11T05:34:20.380Z,3.23
2022-12-11T05:36:53.309Z,3.67
2022-12-11T05:39:26.313Z,3.40
2022-12-11T05:41:59.294Z,3.37
2022-12-11T05:44:32.276Z,3.93
2022-12-11T05:47:05.406Z,3.87
2022-12-11T05:49:38.454Z,3.60
2022-12-11T05:52:11.327Z,3.67
2022-12-11T05:54:44.256Z,4.40
2022-12-11T05:57:17.644Z,3.60
2022-12-11T05:59:50.548Z,4.40
2022-12-11T06:02:23.628Z,3.80
2022-12-11T06:04:56.584Z,3.60
2022-12-11T06:07:29.592Z,3.87
2022-12-11T06:10:02.492Z,3.40
2022-12-11T06:12:35.432Z,3.20
2022-12-11T06:15:08.885Z,3.93
2022-12-11T06:17:42.062Z,3.23
2022-12-11T06:20:15.028Z,3.50
2022-12-11T06:22:48.068Z,3.83
2022-12-11T06:25:20.953Z,3.43
2022-12-11T06:27:54.077Z,3.20
2022-12-11T06:30:37.587Z,2.77
2022-12-11T06:33:13.368Z,3.00
2022-12-11T06:35:46.400Z,3.20
2022-12-11T06:38:19.362Z,3.60
2022-12-11T06:40:56.651Z,2.47
2022-12-11T06:43:29.575Z,3.30
2022-12-11T06:46:06.256Z,3.43
2022-12-11T06:48:39.740Z,3.63
2022-12-11T06:51:18.077Z,4.20
2022-12-11T06:53:52.365Z,5.53
2022-12-11T06:56:25.475Z,4.23
2022-12-11T06:59:01.650Z,4.40
2022-12-11T07:01:37.172Z,3.87
2022-12-11T07:04:10.129Z,3.10
2022-12-11T07:06:43.120Z,3.83
2022-12-11T07:09:16.063Z,3.80
2022-12-11T07:11:52.255Z,4.00
2022-12-11T07:14:25.221Z,4.00
2022-12-11T07:16:58.599Z,3.80
2022-12-11T07:19:31.482Z,4.07
2022-12-11T07:22:04.396Z,3.70
2022-12-11T07:24:37.541Z,4.13
2022-12-11T07:27:10.488Z,3.40
2022-12-11T07:29:43.384Z,3.97
2022-12-11T07:32:16.492Z,3.90
2022-12-11T07:34:51.874Z,3.80
2022-12-11T07:37:25.279Z,4.33
2022-12-11T07:39:58.185Z,4.60
2022-12-11T07:42:31.112Z,3.83
2022-12-11T07:45:04.381Z,4.07
2022-12-11T07:47:37.272Z,4.70
2022-12-11T07:50:10.358Z,4.33
2022-12-11T07:52:43.296Z,4.50
2022-12-11T07:55:16.237Z,3.83
2022-12-11T07:58:13.925Z,4.20
2022-12-11T08:00:47.791Z,3.40
2022-12-11T08:03:20.699Z,3.97
2022-12-11T08:05:54.047Z,4.27
2022-12-11T08:08:27.022Z,4.43
2022-12-11T08:11:03.971Z,4.27
2022-12-11T08:13:37.187Z,3.57
2022-12-11T08:16:11.453Z,4.80
2022-12-11T08:18:45.347Z,5.20
2022-12-11T08:21:19.598Z,3.67
2022-12-11T08:23:53.402Z,4.47
2022-12-11T08:26:29.101Z,4.80
2022-12-11T08:29:02.986Z,4.10
2022-12-11T08:31:36.916Z,4.87
2022-12-11T08:34:13.710Z,4.07
2022-12-11T08:36:46.697Z,4.40
2022-12-11T08:39:19.650Z,5.50
2022-12-11T08:41:52.551Z,6.27
2022-12-11T08:44:26.740Z,5.43
2022-12-11T08:46:59.628Z,4.60
2022-12-11T08:49:34.621Z,5.27
2022-12-11T08:52:07.862Z,4.50
2022-12-11T08:54:40.868Z,4.83
2022-12-11T09:00:45.186Z,3.97
2022-12-11T09:03:22.379Z,4.37
2022-12-11T09:05:55.339Z,4.00
2022-12-11T09:08:28.214Z,4.93
2022-12-11T09:11:12.391Z,4.77
2022-12-11T09:13:47.810Z,4.70
2022-12-11T09:16:22.303Z,4.90
2022-12-11T09:18:59.510Z,5.97
2022-12-11T09:21:32.676Z,4.10
2022-12-11T09:24:05.707Z,4.97
2022-12-11T09:26:39.146Z,6.57
2022-12-11T09:29:12.314Z,5.47
2022-12-11T09:31:48.392Z,4.57
2022-12-11T09:34:26.091Z,4.60
2022-12-11T09:37:02.434Z,4.90
2022-12-11T09:39:35.467Z,4.67
2022-12-11T09:42:08.369Z,4.57
2022-12-11T09:44:47.495Z,4.90
2022-12-11T09:47:27.374Z,4.63
2022-12-11T09:50:21.445Z,4.90
2022-12-11T09:53:03.600Z,5.00
2022-12-11T09:55:43.414Z,4.77
2022-12-11T09:58:24.060Z,4.70
2022-12-11T10:01:09.371Z,4.60
2022-12-11T10:03:52.039Z,4.67
2022-12-11T10:06:29.363Z,4.73
2022-12-11T10:09:05.444Z,4.30
2022-12-11T10:11:56.495Z,4.53
2022-12-11T10:14:48.874Z,5.10
2022-12-11T10:17:29.365Z,4.40
2022-12-11T10:20:18.374Z,4.83
2022-12-11T10:22:52.934Z,3.37
2022-12-11T10:25:26.000Z,3.63
2022-12-11T10:28:00.658Z,5.10
2022-12-11T10:30:37.560Z,3.90
2022-12-11T10:33:13.605Z,4.77
2022-12-11T10:35:49.102Z,4.33
2022-12-11T10:38:22.124Z,4.87
2022-12-11T10:40:59.407Z,4.93
2022-12-11T10:43:36.764Z,4.63
2022-12-11T10:46:23.493Z,4.43
2022-12-11T10:48:57.705Z,5.07
2022-12-11T10:51:33.842Z,5.07
2022-12-11T10:54:18.221Z,5.03
2022-12-11T10:56:51.523Z,4.40
2022-12-11T10:59:36.332Z,5.27
2022-12-11T11:02:20.038Z,4.83
2022-12-11T11:04:53.684Z,5.17
2022-12-11T11:07:28.804Z,5.07
2022-12-11T11:10:15.546Z,4.97
2022-12-11T11:12:49.489Z,4.27
2022-12-11T11:15:31.888Z,4.80
2022-12-11T11:18:12.197Z,4.67
2022-12-11T11:20:47.734Z,5.00
2022-12-11T11:23:24.281Z,4.20
2022-12-11T11:25:58.822Z,4.43
2022-12-11T11:28:34.708Z,5.33
2022-12-11T11:31:09.594Z,4.87
2022-12-11T11:33:56.060Z,5.50
2022-12-11T11:36:30.092Z,4.93
2022-12-11T11:39:18.621Z,5.43
2022-12-11T11:42:06.980Z,5.60
2022-12-11T11:44:44.453Z,5.27
2022-12-11T11:47:21.888Z,5.53
2022-12-11T11:50:07.191Z,5.47
2022-12-11T11:52:52.531Z,5.30
2022-12-11T11:55:35.359Z,6.00
2022-12-11T11:58:22.916Z,5.03
2022-12-11T12:00:56.061Z,4.80
2022-12-11T12:03:29.371Z,4.67
2022-12-11T12:06:15.097Z,4.60
2022-12-11T12:09:09.101Z,4.27
2022-12-11T12:11:49.398Z,3.50
2022-12-11T12:17:17.661Z,4.77
2022-12-11T12:19:50.744Z,4.33
2022-12-11T12:22:27.941Z,4.50
2022-12-11T12:25:19.861Z,4.87
2022-12-11T12:28:11.990Z,4.33
2022-12-11T12:31:05.397Z,4.47
2022-12-11T12:33:54.142Z,4.07
2022-12-11T12:36:36.148Z,5.17
2022-12-11T12:39:23.982Z,4.87
2022-12-11T12:42:20.530Z,4.37
2022-12-11T12:44:56.444Z,4.43
2022-12-11T12:47:33.220Z,4.97
2022-12-11T12:50:11.027Z,4.90
2022-12-11T12:52:44.035Z,5.73
2022-12-11T12:55:18.789Z,4.63
2022-12-11T12:57:54.704Z,4.57
2022-12-11T13:00:37.303Z,4.53
2022-12-11T13:03:26.897Z,4.53
2022-12-11T13:06:01.581Z,4.47
2022-12-11T13:08:37.575Z,4.13
2022-12-11T13:11:12.018Z,5.17
2022-12-11T13:13:55.110Z,4.83
2022-12-11T13:16:42.207Z,5.13
2022-12-11T13:19:27.347Z,4.23
2022-12-11T13:22:04.200Z,4.57
2022-12-11T13:24:46.503Z,4.27
2022-12-11T13:27:39.736Z,4.30
2022-12-11T13:30:15.480Z,5.20
2022-12-11T13:33:07.248Z,4.80
2022-12-11T13:35:40.486Z,4.87
2022-12-11T13:38:18.011Z,5.13
2022-12-11T13:40:54.136Z,4.87
2022-12-11T13:43:29.804Z,5.43
2022-12-11T13:46:04.468Z,5.10
2022-12-11T13:48:39.346Z,7.10
2022-12-11T13:51:19.846Z,5.60
2022-12-11T13:54:05.817Z,5.57
2022-12-11T13:56:38.766Z,5.20
2022-12-11T13:59:18.036Z,5.03
2022-12-11T14:01:51.168Z,5.20
2022-12-11T14:04:24.833Z,5.37
2022-12-11T14:06:58.035Z,5.30
2022-12-11T14:09:31.063Z,6.60
2022-12-11T14:12:04.281Z,5.57
2022-12-11T14:14:42.166Z,5.80
2022-12-11T14:17:16.425Z,4.37
2022-12-11T14:19:49.797Z,5.47
2022-12-11T14:22:24.355Z,5.13
2022-12-11T14:24:58.717Z,5.23
2022-12-11T14:27:31.817Z,5.30
2022-12-11T14:30:12.446Z,5.37
2022-12-11T14:32:45.897Z,5.67
2022-12-11T14:35:23.573Z,4.80
2022-12-11T14:37:57.919Z,5.57
2022-12-11T14:40:33.839Z,5.20
2022-12-11T14:43:15.635Z,5.37
2022-12-11T14:45:50.211Z,5.40
2022-12-11T14:48:28.166Z,5.77
2022-12-11T14:51:02.384Z,5.67
2022-12-11T14:53:37.449Z,5.50
2022-12-11T14:56:16.602Z,5.10
2022-12-11T14:58:57.599Z,5.07
2022-12-11T15:01:32.565Z,5.97
2022-12-11T15:04:22.969Z,5.27
2022-12-11T15:06:55.951Z,5.60
2022-12-11T15:09:40.621Z,5.60
2022-12-11T15:12:15.309Z,5.63
2022-12-11T15:14:57.379Z,5.20
2022-12-11T15:17:30.976Z,6.40
2022-12-11T15:20:07.569Z,5.57
2022-12-11T15:22:43.608Z,5.47
2022-12-11T15:25:24.058Z,5.83
2022-12-11T15:27:58.503Z,5.73
2022-12-11T15:30:33.346Z,6.33
2022-12-11T15:33:12.408Z,5.80
2022-12-11T15:35:56.685Z,4.77
2022-12-11T15:38:34.402Z,5.97
2022-12-11T15:41:11.900Z,5.87
2022-12-11T15:43:45.404Z,5.60
2022-12-11T15:46:18.888Z,4.93
2022-12-11T15:48:51.952Z,6.23
2022-12-11T15:51:27.242Z,6.27
2022-12-11T15:54:00.172Z,5.87
2022-12-11T15:56:33.121Z,5.30
2022-12-11T15:59:06.914Z,4.57
2022-12-11T16:01:39.925Z,6.00
2022-12-11T16:04:12.850Z,6.60
2022-12-11T16:06:46.883Z,6.95
2022-12-11T16:09:20.057Z,5.87
2022-12-11T16:11:52.993Z,5.70
2022-12-11T16:14:25.884Z,5.70
2022-12-11T16:16:58.829Z,6.20
2022-12-11T16:19:32.753Z,5.53
2022-12-11T16:22:06.323Z,5.03
2022-12-11T16:24:40.069Z,5.73
2022-12-11T16:27:13.008Z,5.27
2022-12-11T16:29:45.933Z,5.00
2022-12-11T16:32:18.835Z,5.00
2022-12-11T16:34:51.729Z,5.93
2022-12-11T16:37:24.675Z,5.57
2022-12-11T16:39:57.544Z,5.40
2022-12-11T16:42:30.455Z,6.23
2022-12-11T16:45:12.976Z,5.53
2022-12-11T16:47:46.083Z,6.10
2022-12-11T16:50:19.458Z,5.73
2022-12-11T16:52:52.375Z,5.20
2022-12-11T16:55:25.306Z,7.30
2022-12-11T16:57:58.232Z,7.33
2022-12-11T17:00:31.233Z,11.37
2022-12-11T17:03:04.267Z,7.17
2022-12-11T17:05:39.512Z,6.57
2022-12-11T17:08:12.544Z,5.70
2022-12-11T17:10:45.519Z,5.27
2022-12-11T17:13:18.532Z,5.50
2022-12-11T17:15:51.525Z,6.03
2022-12-11T17:18:24.989Z,5.30
2022-12-11T17:20:58.068Z,5.10
2022-12-11T17:23:31.000Z,7.20
2022-12-11T17:26:04.428Z,5.83
2022-12-11T17:28:37.709Z,6.60
2022-12-11T17:31:13.566Z,5.07
2022-12-11T17:33:47.320Z,5.90
2022-12-11T17:36:21.688Z,6.07
2022-12-11T17:38:54.599Z,6.63
2022-12-11T17:41:27.564Z,5.47
2022-12-11T17:44:00.487Z,7.23
2022-12-11T17:46:33.455Z,5.80
2022-12-11T17:49:06.554Z,6.43
2022-12-11T17:51:39.479Z,7.37
2022-12-11T17:54:12.401Z,6.13
2022-12-11T17:56:45.432Z,6.87
2022-12-11T17:59:18.357Z,6.73
2022-12-11T18:01:51.471Z,7.00
2022-12-11T18:04:24.627Z,6.50
2022-12-11T18:06:57.775Z,7.33
2022-12-11T18:09:30.648Z,8.03
2022-12-11T18:12:03.586Z,6.30
2022-12-11T18:14:36.848Z,5.73
2022-12-11T18:17:09.749Z,6.33
2022-12-11T18:19:46.009Z,7.23
2022-12-11T18:22:19.452Z,6.43
2022-12-11T18:24:52.447Z,6.37
2022-12-11T18:27:25.759Z,9.30
2022-12-11T18:29:59.163Z,6.73
2022-12-11T18:32:32.103Z,6.27
2022-12-11T18:35:12.912Z,6.90
2022-12-11T18:37:46.134Z,6.40
2022-12-11T18:40:19.109Z,6.13
2022-12-11T18:42:52.008Z,5.77
2022-12-11T18:45:24.976Z,6.60
2022-12-11T18:47:57.982Z,9.43
2022-12-11T18:50:31.831Z,7.60
2022-12-11T18:53:04.956Z,6.40
2022-12-11T18:55:42.373Z,6.53
2022-12-11T18:58:16.375Z,6.50
2022-12-11T19:00:49.332Z,7.03
2022-12-11T19:03:22.264Z,5.97
2022-12-11T19:05:55.149Z,6.40
2022-12-11T19:08:28.115Z,6.87
2022-12-11T19:11:01.088Z,6.20
2022-12-11T19:13:34.592Z,6.23
2022-12-11T19:16:07.687Z,6.77
2022-12-11T19:18:40.661Z,5.83
2022-12-11T19:21:14.159Z,5.63
2022-12-11T19:23:47.501Z,6.87
2022-12-11T19:26:21.418Z,6.73
2022-12-11T19:28:56.829Z,6.60
2022-12-11T19:31:31.104Z,6.67
2022-12-11T19:34:04.053Z,6.30
2022-12-11T19:36:37.119Z,6.50
2022-12-11T19:39:13.307Z,6.60
2022-12-11T19:41:46.725Z,6.73
2022-12-11T19:44:19.662Z,6.50
2022-12-11T19:46:52.716Z,6.47
2022-12-11T19:49:25.881Z,6.47
2022-12-11T19:51:58.858Z,6.53
2022-12-11T19:54:32.525Z,5.90
2022-12-11T19:57:05.395Z,6.40
2022-12-11T19:59:38.294Z,7.00
2022-12-11T20:02:12.460Z,5.83
2022-12-11T20:04:45.544Z,5.80
2022-12-11T20:07:18.867Z,5.87
2022-12-11T20:09:51.843Z,6.27
2022-12-11T20:12:24.776Z,6.60
2022-12-11T20:14:57.695Z,7.27
2022-12-11T20:17:31.248Z,6.60
2022-12-11T20:20:04.438Z,5.93
2022-12-11T20:22:37.552Z,8.33
2022-12-11T20:25:11.089Z,8.87
2022-12-11T20:27:44.219Z,8.80
2022-12-11T20:30:17.581Z,8.60
2022-12-11T20:32:51.589Z,6.93
2022-12-11T20:35:26.304Z,5.93
2022-12-11T20:37:59.295Z,7.17
2022-12-11T20:40:32.262Z,7.13
2022-12-11T20:43:05.180Z,8.37
2022-12-11T20:45:38.127Z,6.63
2022-12-11T20:48:11.003Z,8.37
2022-12-11T20:50:43.999Z,7.43
2022-12-11T20:53:16.874Z,6.73
2022-12-11T20:55:49.853Z,6.17
2022-12-11T20:58:22.895Z,5.63
2022-12-11T21:00:55.849Z,6.40
2022-12-11T21:03:29.571Z,6.83
2022-12-11T21:06:02.552Z,5.77
2022-12-11T21:08:35.441Z,6.30
2022-12-11T21:11:08.367Z,8.68
2022-12-11T21:13:41.385Z,5.93
2022-12-11T21:16:14.390Z,5.60
2022-12-11T21:18:48.131Z,5.63
2022-12-11T21:21:21.042Z,5.87
2022-12-11T21:23:53.936Z,5.10
2022-12-11T21:26:26.802Z,5.43
2022-12-11T21:28:59.831Z,5.10
2022-12-11T21:31:32.759Z,5.10
2022-12-11T21:34:05.954Z,5.17
2022-12-11T21:36:38.891Z,4.77
2022-12-11T21:39:12.313Z,5.77
2022-12-11T21:41:45.193Z,4.70
2022-12-11T21:47:11.019Z,4.60
2022-12-11T21:49:43.906Z,4.83
2022-12-11T21:52:16.832Z,5.33
2022-12-11T21:54:49.705Z,4.50
2022-12-11T21:57:26.286Z,4.93
2022-12-11T21:59:59.888Z,6.47
2022-12-11T22:02:37.443Z,5.13
2022-12-11T22:05:13.579Z,5.73
2022-12-11T22:07:46.777Z,5.47
2022-12-11T22:10:19.719Z,4.77
2022-12-11T22:12:53.125Z,5.00
2022-12-11T22:15:26.003Z,5.07
2022-12-11T22:17:58.972Z,4.97
2022-12-11T22:20:31.916Z,5.43
2022-12-11T22:23:05.006Z,4.77
2022-12-11T22:25:38.108Z,4.93
2022-12-11T22:28:11.062Z,5.67
2022-12-11T22:30:44.252Z,5.07
2022-12-11T22:33:17.208Z,5.37
2022-12-11T22:35:59.815Z,4.83
2022-12-11T22:38:32.829Z,5.13
2022-12-11T22:41:17.486Z,5.03
2022-12-11T22:43:53.963Z,5.33
2022-12-11T22:46:28.228Z,5.83
2022-12-11T22:49:01.133Z,5.10
2022-12-11T22:51:36.484Z,4.23
2022-12-11T22:54:09.417Z,5.37
2022-12-11T22:56:42.428Z,5.17
2022-12-11T22:59:15.371Z,5.03
2022-12-11T23:01:48.544Z,5.03
2022-12-11T23:04:21.681Z,4.23
2022-12-11T23:06:54.839Z,3.80
2022-12-11T23:09:27.768Z,5.40
2022-12-11T23:12:01.515Z,5.27
2022-12-11T23:14:34.424Z,5.53
2022-12-11T23:17:07.365Z,5.53
2022-12-11T23:19:40.275Z,4.67
2022-12-11T23:22:13.558Z,5.77
2022-12-11T23:24:46.480Z,5.00
2022-12-11T23:27:19.452Z,5.50
2022-12-11T23:29:52.356Z,5.43
2022-12-11T23:32:25.331Z,5.90
2022-12-11T23:34:58.228Z,5.40
2022-12-11T23:37:31.159Z,4.80
2022-12-11T23:40:04.429Z,5.57
2022-12-11T23:42:37.338Z,5.00
2022-12-11T23:45:10.576Z,5.60
2022-12-11T23:47:43.896Z,4.93
2022-12-11T23:50:17.104Z,5.40
2022-12-11T23:52:50.014Z,4.63
2022-12-11T23:55:25.229Z,6.20
2022-12-11T23:57:58.223Z,4.83
